createdAt,value
2022-10-26T00:00:04.584Z,23.4
2022-10-26T00:01:04.630Z,23.4
2022-10-26T00:02:04.731Z,23.4
2022-10-26T00:03:04.632Z,23.4
2022-10-26T00:04:04.590Z,23.4
2022-10-26T00:05:04.587Z,23.4
2022-10-26T00:06:04.611Z,23.4
2022-10-26T00:07:04.619Z,23.4
2022-10-26T00:09:37.172Z,23.1
2022-10-26T00:10:03.696Z,23.3
2022-10-26T00:11:03.698Z,23.4
2022-10-26T00:12:03.692Z,23.4
2022-10-26T00:13:03.703Z,23.4
2022-10-26T00:14:03.748Z,23.4
2022-10-26T00:15:03.721Z,23.4
2022-10-26T00:16:04.655Z,23.4
2022-10-26T00:17:03.708Z,23.4
2022-10-26T00:18:03.702Z,23.4
2022-10-26T00:19:03.723Z,23.4
2022-10-26T00:20:03.741Z,23.4
2022-10-26T00:21:03.705Z,23.4
2022-10-26T00:22:03.714Z,23.4
2022-10-26T00:23:03.726Z,23.4
2022-10-26T00:24:03.709Z,23.4
2022-10-26T00:25:03.719Z,23.4
2022-10-26T00:26:03.734Z,23.4
2022-10-26T00:27:03.736Z,23.4
2022-10-26T00:28:03.728Z,23.4
2022-10-26T00:29:03.698Z,23.4
2022-10-26T00:30:04.136Z,23.5
2022-10-26T00:31:03.730Z,23.4
2022-10-26T00:32:03.769Z,23.5
2022-10-26T00:33:03.719Z,23.4
2022-10-26T00:34:03.702Z,23.4
2022-10-26T00:35:11.838Z,23.4
2022-10-26T00:36:03.705Z,23.4
2022-10-26T00:37:03.720Z,23.4
2022-10-26T00:38:03.755Z,23.4
2022-10-26T00:39:03.753Z,23.4
2022-10-26T00:40:03.707Z,23.4
2022-10-26T00:41:03.717Z,23.4
2022-10-26T00:42:03.720Z,23.4
2022-10-26T00:43:03.713Z,23.4
2022-10-26T00:44:03.732Z,23.4
2022-10-26T00:45:03.714Z,23.4
2022-10-26T00:46:03.709Z,23.4
2022-10-26T00:47:03.713Z,23.4
2022-10-26T00:48:03.715Z,23.4
2022-10-26T00:49:03.723Z,23.4
2022-10-26T00:50:04.103Z,23.4
2022-10-26T00:51:03.712Z,23.4
2022-10-26T00:52:03.703Z,23.4
2022-10-26T00:53:03.709Z,23.4
2022-10-26T00:54:03.714Z,23.4
2022-10-26T00:55:03.714Z,23.4
2022-10-26T00:56:03.738Z,23.4
2022-10-26T00:58:40.624Z,23.1
2022-10-26T00:59:04.335Z,23.3
2022-10-26T01:00:04.336Z,23.4
2022-10-26T01:01:04.417Z,23.4
2022-10-26T01:02:04.355Z,23.4
2022-10-26T01:03:04.337Z,23.4
2022-10-26T01:04:04.375Z,23.4
2022-10-26T01:05:04.389Z,23.4
2022-10-26T01:06:04.397Z,23.4
2022-10-26T01:07:04.354Z,23.4
2022-10-26T01:08:04.353Z,23.4
2022-10-26T01:09:04.340Z,23.5
2022-10-26T01:10:04.355Z,23.5
2022-10-26T01:11:04.341Z,23.5
2022-10-26T01:12:04.407Z,23.5
2022-10-26T01:13:04.335Z,23.5
2022-10-26T01:14:04.357Z,23.5
2022-10-26T01:15:04.340Z,23.5
2022-10-26T01:16:04.342Z,23.5
2022-10-26T01:18:04.376Z,23.5
2022-10-26T01:19:04.343Z,23.5
2022-10-26T01:20:04.398Z,23.5
2022-10-26T01:21:04.358Z,23.5
2022-10-26T01:22:04.369Z,23.5
2022-10-26T01:23:04.347Z,23.5
2022-10-26T01:24:04.410Z,23.5
2022-10-26T01:25:04.347Z,23.5
2022-10-26T01:26:04.350Z,23.5
2022-10-26T01:27:04.342Z,23.5
2022-10-26T01:28:04.350Z,23.5
2022-10-26T01:29:04.348Z,23.5
2022-10-26T01:30:04.378Z,23.5
2022-10-26T01:31:04.460Z,23.5
2022-10-26T01:32:04.432Z,23.5
2022-10-26T01:33:04.456Z,23.5
2022-10-26T01:34:04.457Z,23.5
2022-10-26T01:35:04.476Z,23.5
2022-10-26T01:36:04.522Z,23.5
2022-10-26T01:37:05.368Z,23.5
2022-10-26T01:38:11.224Z,23.4
2022-10-26T01:39:03.926Z,23.4
2022-10-26T01:40:03.822Z,23.5
2022-10-26T01:41:03.819Z,23.4
2022-10-26T01:42:03.851Z,23.4
2022-10-26T01:43:03.829Z,23.4
2022-10-26T01:44:03.835Z,23.4
2022-10-26T01:45:03.827Z,23.4
2022-10-26T01:46:03.857Z,23.4
2022-10-26T01:47:03.820Z,23.4
2022-10-26T01:48:03.818Z,23.4
2022-10-26T01:49:03.836Z,23.4
2022-10-26T01:50:03.818Z,23.4
2022-10-26T01:51:03.828Z,23.4
2022-10-26T01:52:03.843Z,23.4
2022-10-26T01:53:03.837Z,23.4
2022-10-26T01:54:03.862Z,23.4
2022-10-26T01:55:03.868Z,23.4
2022-10-26T01:56:03.832Z,23.4
2022-10-26T01:57:03.839Z,23.4
2022-10-26T01:58:03.850Z,23.4
2022-10-26T01:59:03.846Z,23.4
2022-10-26T02:00:03.834Z,23.4
2022-10-26T02:01:03.887Z,23.4
2022-10-26T02:02:03.842Z,23.4
2022-10-26T02:03:03.852Z,23.4
2022-10-26T02:04:03.883Z,23.4
2022-10-26T02:05:03.860Z,23.4
2022-10-26T02:06:03.885Z,23.4
2022-10-26T02:07:03.846Z,23.4
2022-10-26T02:08:03.819Z,23.4
2022-10-26T02:09:03.831Z,23.4
2022-10-26T02:10:03.823Z,23.4
2022-10-26T02:11:03.833Z,23.4
2022-10-26T02:12:03.878Z,23.4
2022-10-26T02:13:03.842Z,23.4
2022-10-26T02:14:03.896Z,23.4
2022-10-26T02:15:03.829Z,23.3
2022-10-26T02:16:03.883Z,23.3
2022-10-26T02:17:04.763Z,23.3
2022-10-26T02:18:03.874Z,23.3
2022-10-26T02:19:03.833Z,23.3
2022-10-26T02:20:03.827Z,23.3
2022-10-26T02:21:03.848Z,23.3
2022-10-26T02:22:03.851Z,23.3
2022-10-26T02:23:03.855Z,23.3
2022-10-26T02:24:03.894Z,23.3
2022-10-26T02:25:03.847Z,23.3
2022-10-26T02:26:03.836Z,23.3
2022-10-26T02:27:03.849Z,23.3
2022-10-26T02:28:03.833Z,23.3
2022-10-26T02:29:03.839Z,23.3
2022-10-26T02:30:03.860Z,23.3
2022-10-26T02:31:03.834Z,23.3
2022-10-26T02:32:03.839Z,23.3
2022-10-26T02:33:03.876Z,23.2
2022-10-26T02:34:03.833Z,23.2
2022-10-26T02:35:03.856Z,23.2
2022-10-26T02:36:03.866Z,23.2
2022-10-26T02:37:03.841Z,23.2
2022-10-26T02:38:03.844Z,23.2
2022-10-26T02:39:03.859Z,23.1
2022-10-26T02:40:03.836Z,23.1
2022-10-26T02:41:03.851Z,23.1
2022-10-26T02:42:03.877Z,23.1
2022-10-26T02:43:03.842Z,23.1
2022-10-26T02:44:03.847Z,23.1
2022-10-26T02:45:03.847Z,23.1
2022-10-26T02:46:03.844Z,23.1
2022-10-26T02:47:03.860Z,23.1
2022-10-26T02:48:04.013Z,23.0
2022-10-26T02:49:04.150Z,23.0
2022-10-26T02:50:03.834Z,23.0
2022-10-26T02:51:03.835Z,23.0
2022-10-26T02:52:03.846Z,23.0
2022-10-26T02:53:03.845Z,23.0
2022-10-26T02:54:03.860Z,23.0
2022-10-26T02:55:03.849Z,23.0
2022-10-26T02:56:03.851Z,23.0
2022-10-26T02:57:03.839Z,23.0
2022-10-26T02:58:03.842Z,23.0
2022-10-26T02:59:03.846Z,22.9
2022-10-26T03:00:03.930Z,22.9
2022-10-26T03:01:03.924Z,22.9
2022-10-26T03:02:03.839Z,22.9
2022-10-26T03:03:33.373Z,22.9
2022-10-26T03:04:03.907Z,22.9
2022-10-26T03:05:03.864Z,22.9
2022-10-26T03:06:03.876Z,22.9
2022-10-26T03:07:04.719Z,22.9
2022-10-26T03:08:03.852Z,22.9
2022-10-26T03:09:03.860Z,22.9
2022-10-26T03:10:03.856Z,22.9
2022-10-26T03:11:03.848Z,22.9
2022-10-26T03:12:03.879Z,22.9
2022-10-26T03:13:03.847Z,22.9
2022-10-26T03:14:03.842Z,22.8
2022-10-26T03:15:03.852Z,22.8
2022-10-26T03:16:03.846Z,22.8
2022-10-26T03:17:03.855Z,22.8
2022-10-26T03:18:03.917Z,22.8
2022-10-26T03:19:03.865Z,22.8
2022-10-26T03:20:03.864Z,22.8
2022-10-26T03:21:03.853Z,22.8
2022-10-26T03:22:03.845Z,22.8
2022-10-26T03:23:03.852Z,22.8
2022-10-26T03:24:04.018Z,22.8
2022-10-26T03:25:03.904Z,22.8
2022-10-26T03:26:03.859Z,22.8
2022-10-26T03:27:03.856Z,22.8
2022-10-26T03:28:03.843Z,22.7
2022-10-26T03:29:03.856Z,22.7
2022-10-26T03:30:03.889Z,22.7
2022-10-26T03:31:03.860Z,22.7
2022-10-26T03:32:03.859Z,22.7
2022-10-26T03:33:03.874Z,22.7
2022-10-26T03:34:03.874Z,22.7
2022-10-26T03:35:03.861Z,22.7
2022-10-26T03:36:03.930Z,22.7
2022-10-26T03:37:03.868Z,22.7
2022-10-26T03:38:03.857Z,22.7
2022-10-26T03:39:03.866Z,22.7
2022-10-26T03:40:03.865Z,22.7
2022-10-26T03:41:03.872Z,22.7
2022-10-26T03:42:03.917Z,22.7
2022-10-26T03:43:03.855Z,22.7
2022-10-26T03:44:03.854Z,22.7
2022-10-26T03:45:03.881Z,22.7
2022-10-26T03:46:03.868Z,22.7
2022-10-26T03:47:03.863Z,22.6
2022-10-26T03:48:03.882Z,22.6
2022-10-26T03:49:05.411Z,22.6
2022-10-26T03:50:03.869Z,22.6
2022-10-26T03:51:03.867Z,22.6
2022-10-26T03:52:03.871Z,22.6
2022-10-26T03:53:03.870Z,22.6
2022-10-26T03:54:04.041Z,22.6
2022-10-26T03:55:03.870Z,22.6
2022-10-26T03:56:03.908Z,22.6
2022-10-26T03:57:03.871Z,22.6
2022-10-26T03:58:03.861Z,22.6
2022-10-26T03:59:03.865Z,22.6
2022-10-26T04:00:03.872Z,22.6
2022-10-26T04:01:03.906Z,22.6
2022-10-26T04:02:03.891Z,22.7
2022-10-26T04:03:03.877Z,22.7
2022-10-26T04:04:03.951Z,22.7
2022-10-26T04:05:03.876Z,22.7
2022-10-26T04:06:03.878Z,22.8
2022-10-26T04:08:50.777Z,22.5
2022-10-26T04:09:04.471Z,22.6
2022-10-26T04:10:04.467Z,22.8
2022-10-26T04:11:04.863Z,22.8
2022-10-26T04:12:04.486Z,22.8
2022-10-26T04:13:04.538Z,22.9
2022-10-26T04:14:04.500Z,22.9
2022-10-26T04:15:04.509Z,22.9
2022-10-26T04:16:04.481Z,22.9
2022-10-26T04:17:04.500Z,22.9
2022-10-26T04:18:04.496Z,22.9
2022-10-26T04:19:04.497Z,22.9
2022-10-26T04:20:04.546Z,22.9
2022-10-26T04:21:04.490Z,22.9
2022-10-26T04:22:04.516Z,22.9
2022-10-26T04:23:04.505Z,22.9
2022-10-26T04:24:04.494Z,23.0
2022-10-26T04:25:04.496Z,23.0
2022-10-26T04:26:04.509Z,23.0
2022-10-26T04:27:04.497Z,23.0
2022-10-26T04:28:04.492Z,23.0
2022-10-26T04:29:04.497Z,23.0
2022-10-26T04:30:04.505Z,23.0
2022-10-26T04:31:04.503Z,23.0
2022-10-26T04:32:04.526Z,23.0
2022-10-26T04:33:04.518Z,23.0
2022-10-26T04:34:04.485Z,23.0
2022-10-26T04:35:04.500Z,23.0
2022-10-26T04:36:04.541Z,23.0
2022-10-26T04:37:04.496Z,23.0
2022-10-26T04:38:04.537Z,23.0
2022-10-26T04:39:04.542Z,23.0
2022-10-26T04:41:04.493Z,23.0
2022-10-26T04:42:04.501Z,23.1
2022-10-26T04:43:04.499Z,23.1
2022-10-26T04:44:04.557Z,23.1
2022-10-26T04:45:04.501Z,23.1
2022-10-26T04:46:04.497Z,23.1
2022-10-26T04:47:04.507Z,23.1
2022-10-26T04:48:04.512Z,23.1
2022-10-26T04:49:04.503Z,23.1
2022-10-26T04:50:04.547Z,23.1
2022-10-26T04:51:04.499Z,23.1
2022-10-26T04:52:04.492Z,23.1
2022-10-26T04:53:04.488Z,23.1
2022-10-26T04:54:04.507Z,23.1
2022-10-26T04:55:04.504Z,23.1
2022-10-26T04:56:04.539Z,23.1
2022-10-26T04:57:04.492Z,23.1
2022-10-26T04:58:04.495Z,23.1
2022-10-26T04:59:04.570Z,23.1
2022-10-26T05:00:04.497Z,23.1
2022-10-26T05:01:04.628Z,23.1
2022-10-26T05:02:04.713Z,23.1
2022-10-26T05:03:04.516Z,23.1
2022-10-26T05:04:04.500Z,23.1
2022-10-26T05:05:04.590Z,23.1
2022-10-26T05:06:04.500Z,23.1
2022-10-26T05:07:04.539Z,23.1
2022-10-26T05:08:04.551Z,23.1
2022-10-26T05:09:04.531Z,23.1
2022-10-26T05:10:04.492Z,23.1
2022-10-26T05:11:04.506Z,23.1
2022-10-26T05:12:04.512Z,23.1
2022-10-26T05:13:04.497Z,23.1
2022-10-26T05:14:04.567Z,23.1
2022-10-26T05:15:06.472Z,23.1
2022-10-26T05:16:04.504Z,23.1
2022-10-26T05:17:04.516Z,23.1
2022-10-26T05:18:04.547Z,23.1
2022-10-26T05:19:04.512Z,23.1
2022-10-26T05:20:04.541Z,23.1
2022-10-26T05:21:04.543Z,23.1
2022-10-26T05:22:04.500Z,23.1
2022-10-26T05:23:04.531Z,23.1
2022-10-26T05:24:07.489Z,23.1
2022-10-26T05:25:04.530Z,23.1
2022-10-26T05:26:04.534Z,23.1
2022-10-26T05:27:04.524Z,23.1
2022-10-26T05:28:04.498Z,23.1
2022-10-26T05:29:04.512Z,23.1
2022-10-26T05:31:35.712Z,22.8
2022-10-26T05:32:03.673Z,22.9
2022-10-26T05:33:03.685Z,23.0
2022-10-26T05:34:03.677Z,23.0
2022-10-26T05:35:03.712Z,23.0
2022-10-26T05:36:03.716Z,23.0
2022-10-26T05:37:03.691Z,23.0
2022-10-26T05:38:03.682Z,23.1
2022-10-26T05:39:03.687Z,23.1
2022-10-26T05:40:03.672Z,23.1
2022-10-26T05:41:03.691Z,23.1
2022-10-26T05:42:03.713Z,23.1
2022-10-26T05:43:03.682Z,23.1
2022-10-26T05:44:03.678Z,23.1
2022-10-26T05:45:03.691Z,23.1
2022-10-26T05:46:03.690Z,23.1
2022-10-26T05:47:03.705Z,23.1
2022-10-26T05:48:03.710Z,23.1
2022-10-26T05:49:03.683Z,23.1
2022-10-26T05:50:03.685Z,23.1
2022-10-26T05:51:03.694Z,23.1
2022-10-26T05:52:03.679Z,23.1
2022-10-26T05:53:03.696Z,23.1
2022-10-26T05:54:03.738Z,23.1
2022-10-26T05:55:03.721Z,23.1
2022-10-26T05:56:10.885Z,23.0
2022-10-26T05:57:04.135Z,23.1
2022-10-26T05:58:04.146Z,23.1
2022-10-26T05:59:04.152Z,23.1
2022-10-26T06:00:04.179Z,23.1
2022-10-26T06:01:04.166Z,23.1
2022-10-26T06:02:04.236Z,23.1
2022-10-26T06:03:04.135Z,23.1
2022-10-26T06:04:04.165Z,23.1
2022-10-26T06:05:04.151Z,23.1
2022-10-26T06:06:06.632Z,23.1
2022-10-26T06:07:04.154Z,23.1
2022-10-26T06:08:04.161Z,23.1
2022-10-26T06:09:04.152Z,23.1
2022-10-26T06:10:04.152Z,23.1
2022-10-26T06:11:04.165Z,23.1
2022-10-26T06:12:04.183Z,23.1
2022-10-26T06:13:04.141Z,23.1
2022-10-26T06:14:04.157Z,23.1
2022-10-26T06:15:04.161Z,23.1
2022-10-26T06:16:04.194Z,23.1
2022-10-26T06:17:04.167Z,23.1
2022-10-26T06:18:04.159Z,23.1
2022-10-26T06:19:04.153Z,23.1
2022-10-26T06:20:04.211Z,23.2
2022-10-26T06:21:04.178Z,23.1
2022-10-26T06:22:04.183Z,23.1
2022-10-26T06:23:04.150Z,23.1
2022-10-26T06:24:04.155Z,23.1
2022-10-26T06:25:04.244Z,23.1
2022-10-26T06:26:04.157Z,23.1
2022-10-26T06:27:04.149Z,23.1
2022-10-26T06:28:04.182Z,23.1
2022-10-26T06:29:04.272Z,23.1
2022-10-26T06:30:04.155Z,23.1
2022-10-26T06:31:04.156Z,23.1
2022-10-26T06:32:04.149Z,23.1
2022-10-26T06:33:06.467Z,23.1
2022-10-26T06:34:04.182Z,23.1
2022-10-26T06:35:07.114Z,23.1
2022-10-26T06:36:04.190Z,23.1
2022-10-26T06:37:04.196Z,23.1
2022-10-26T06:38:04.219Z,23.1
2022-10-26T06:39:04.159Z,23.1
2022-10-26T06:40:04.189Z,23.1
2022-10-26T06:41:04.168Z,23.1
2022-10-26T06:43:55.307Z,22.8
2022-10-26T06:44:04.042Z,22.9
2022-10-26T06:45:04.071Z,23.0
2022-10-26T06:46:04.057Z,23.1
2022-10-26T06:47:04.014Z,23.1
2022-10-26T06:48:04.021Z,23.1
2022-10-26T06:49:04.271Z,23.1
2022-10-26T06:50:04.041Z,23.1
2022-10-26T06:51:04.032Z,23.1
2022-10-26T06:52:04.069Z,23.1
2022-10-26T06:53:04.053Z,23.1
2022-10-26T06:54:04.040Z,23.1
2022-10-26T06:55:04.023Z,23.1
2022-10-26T06:56:04.973Z,23.1
2022-10-26T06:57:04.023Z,23.1
2022-10-26T06:58:04.073Z,23.1
2022-10-26T06:59:06.327Z,23.1
2022-10-26T07:00:04.020Z,23.1
2022-10-26T07:01:04.093Z,23.1
2022-10-26T07:02:06.405Z,23.1
2022-10-26T07:03:04.094Z,23.1
2022-10-26T07:04:04.098Z,23.1
2022-10-26T07:05:04.022Z,23.1
2022-10-26T07:06:04.026Z,23.1
2022-10-26T07:07:04.035Z,23.1
2022-10-26T07:08:04.023Z,23.1
2022-10-26T07:09:04.026Z,23.1
2022-10-26T07:10:04.055Z,23.1
2022-10-26T07:11:04.032Z,23.1
2022-10-26T07:12:04.033Z,23.1
2022-10-26T07:13:04.040Z,23.1
2022-10-26T07:14:04.048Z,23.1
2022-10-26T07:15:04.084Z,23.1
2022-10-26T07:16:04.967Z,23.1
2022-10-26T07:17:04.066Z,23.1
2022-10-26T07:18:04.054Z,23.1
2022-10-26T07:19:04.022Z,23.1
2022-10-26T07:20:04.030Z,23.1
2022-10-26T07:21:04.029Z,23.1
2022-10-26T07:22:04.091Z,23.1
2022-10-26T07:23:04.044Z,23.1
2022-10-26T07:24:04.042Z,23.1
2022-10-26T07:25:04.032Z,23.1
2022-10-26T07:26:04.123Z,23.1
2022-10-26T07:27:04.027Z,23.1
2022-10-26T07:28:04.075Z,23.1
2022-10-26T07:29:04.042Z,23.1
2022-10-26T07:30:04.060Z,23.1
2022-10-26T07:31:04.053Z,23.1
2022-10-26T07:32:04.052Z,23.1
2022-10-26T07:33:04.022Z,23.1
2022-10-26T07:34:04.082Z,23.1
2022-10-26T07:35:04.033Z,23.1
2022-10-26T07:36:04.118Z,23.1
2022-10-26T07:37:05.464Z,23.1
2022-10-26T07:38:04.046Z,23.1
2022-10-26T07:39:04.051Z,23.1
2022-10-26T07:40:06.620Z,23.1
2022-10-26T07:41:04.029Z,23.1
2022-10-26T07:42:04.055Z,23.1
2022-10-26T07:43:04.066Z,23.1
2022-10-26T07:44:04.042Z,23.1
2022-10-26T07:45:04.088Z,23.1
2022-10-26T07:46:04.082Z,23.1
2022-10-26T07:47:04.064Z,23.1
2022-10-26T07:48:04.038Z,23.1
2022-10-26T07:49:04.075Z,23.1
2022-10-26T07:50:04.071Z,23.1
2022-10-26T07:51:04.057Z,23.1
2022-10-26T07:52:04.085Z,23.1
2022-10-26T07:53:04.035Z,23.1
2022-10-26T07:54:04.049Z,23.1
2022-10-26T07:55:04.050Z,23.1
2022-10-26T07:56:04.067Z,23.1
2022-10-26T07:58:04.086Z,23.0
2022-10-26T07:59:04.077Z,23.0
2022-10-26T08:00:04.051Z,23.0
2022-10-26T08:01:04.195Z,23.1
2022-10-26T08:02:04.083Z,23.0
2022-10-26T08:03:04.055Z,23.0
2022-10-26T08:04:04.077Z,23.0
2022-10-26T08:05:04.061Z,23.0
2022-10-26T08:06:04.077Z,23.0
2022-10-26T08:07:04.035Z,23.0
2022-10-26T08:08:04.048Z,23.0
2022-10-26T08:09:04.045Z,23.0
2022-10-26T08:10:04.101Z,23.0
2022-10-26T08:11:04.065Z,23.0
2022-10-26T08:12:04.984Z,23.0
2022-10-26T08:13:04.080Z,23.1
2022-10-26T08:14:04.098Z,23.1
2022-10-26T08:15:04.114Z,23.0
2022-10-26T08:16:04.093Z,23.0
2022-10-26T08:17:04.057Z,23.0
2022-10-26T08:18:04.984Z,23.0
2022-10-26T08:19:04.359Z,23.0
2022-10-26T08:20:04.052Z,23.0
2022-10-26T08:21:10.819Z,23.0
2022-10-26T08:22:04.149Z,23.0
2022-10-26T08:23:04.044Z,23.0
2022-10-26T08:24:04.061Z,23.0
2022-10-26T08:25:05.292Z,23.0
2022-10-26T08:26:04.053Z,23.0
2022-10-26T08:27:04.056Z,23.0
2022-10-26T08:28:04.092Z,23.0
2022-10-26T08:29:04.050Z,23.0
2022-10-26T08:30:04.602Z,23.0
2022-10-26T08:31:04.061Z,23.0
2022-10-26T08:32:04.079Z,23.0
2022-10-26T08:33:04.084Z,23.0
2022-10-26T08:34:04.099Z,23.0
2022-10-26T08:35:04.068Z,23.0
2022-10-26T08:36:04.089Z,23.0
2022-10-26T08:37:04.083Z,23.0
2022-10-26T08:38:04.063Z,23.1
2022-10-26T08:39:04.047Z,23.0
2022-10-26T08:40:04.069Z,23.0
2022-10-26T08:41:04.061Z,23.0
2022-10-26T08:42:04.099Z,23.1
2022-10-26T08:43:04.063Z,23.1
2022-10-26T08:44:04.059Z,23.1
2022-10-26T08:45:04.064Z,23.1
2022-10-26T08:46:04.055Z,23.0
2022-10-26T08:47:04.080Z,23.1
2022-10-26T08:48:04.124Z,23.1
2022-10-26T08:49:04.066Z,23.1
2022-10-26T08:50:04.088Z,23.1
2022-10-26T08:51:04.067Z,23.1
2022-10-26T08:52:04.082Z,23.1
2022-10-26T08:53:04.104Z,23.1
2022-10-26T08:54:04.102Z,23.1
2022-10-26T08:55:04.071Z,23.1
2022-10-26T08:56:04.067Z,23.1
2022-10-26T08:58:54.261Z,22.8
2022-10-26T08:59:04.251Z,22.9
2022-10-26T09:00:05.684Z,23.0
2022-10-26T09:01:04.079Z,23.0
2022-10-26T09:02:04.023Z,23.0
2022-10-26T09:03:03.970Z,23.1
2022-10-26T09:04:04.005Z,23.1
2022-10-26T09:05:03.966Z,23.1
2022-10-26T09:06:04.008Z,23.1
2022-10-26T09:07:03.991Z,23.1
2022-10-26T09:08:03.997Z,23.1
2022-10-26T09:09:03.966Z,23.1
2022-10-26T09:10:04.001Z,23.1
2022-10-26T09:11:03.965Z,23.1
2022-10-26T09:12:04.018Z,23.1
2022-10-26T09:13:04.028Z,23.1
2022-10-26T09:14:03.974Z,23.1
2022-10-26T09:15:03.973Z,23.1
2022-10-26T09:16:04.001Z,23.1
2022-10-26T09:17:03.963Z,23.1
2022-10-26T09:18:04.055Z,23.1
2022-10-26T09:19:04.062Z,23.0
2022-10-26T09:20:04.132Z,23.1
2022-10-26T09:21:03.972Z,23.1
2022-10-26T09:22:03.979Z,23.1
2022-10-26T09:23:03.984Z,23.0
2022-10-26T09:24:04.007Z,23.0
2022-10-26T09:25:06.911Z,23.0
2022-10-26T09:26:03.979Z,23.0
2022-10-26T09:28:03.978Z,23.0
2022-10-26T09:29:04.009Z,23.0
2022-10-26T09:30:04.034Z,23.0
2022-10-26T09:31:04.023Z,23.0
2022-10-26T09:32:04.909Z,23.0
2022-10-26T09:33:03.975Z,23.0
2022-10-26T09:34:03.983Z,23.0
2022-10-26T09:35:03.976Z,23.0
2022-10-26T09:36:04.038Z,23.0
2022-10-26T09:37:03.976Z,23.0
2022-10-26T09:38:03.996Z,23.0
2022-10-26T09:39:03.975Z,23.0
2022-10-26T09:40:04.028Z,23.0
2022-10-26T09:41:03.979Z,23.0
2022-10-26T09:42:04.009Z,23.0
2022-10-26T09:43:03.974Z,23.0
2022-10-26T09:44:03.986Z,23.0
2022-10-26T09:45:03.978Z,23.0
2022-10-26T09:46:04.032Z,23.0
2022-10-26T09:47:03.995Z,23.0
2022-10-26T09:48:06.622Z,23.0
2022-10-26T09:50:03.988Z,23.0
2022-10-26T09:51:04.931Z,23.0
2022-10-26T09:52:04.032Z,23.0
2022-10-26T09:53:03.987Z,23.0
2022-10-26T09:54:04.017Z,23.0
2022-10-26T09:55:03.990Z,23.0
2022-10-26T09:56:03.983Z,23.0
2022-10-26T09:57:03.991Z,23.0
2022-10-26T09:58:03.993Z,23.0
2022-10-26T09:59:03.980Z,23.0
2022-10-26T10:00:04.059Z,23.0
2022-10-26T10:01:04.032Z,23.0
2022-10-26T10:02:04.176Z,23.0
2022-10-26T10:03:04.003Z,23.0
2022-10-26T10:04:03.982Z,23.0
2022-10-26T10:05:03.982Z,23.0
2022-10-26T10:06:04.021Z,23.0
2022-10-26T10:07:03.982Z,23.1
2022-10-26T10:08:03.992Z,23.1
2022-10-26T10:09:04.025Z,23.1
2022-10-26T10:10:03.988Z,23.1
2022-10-26T10:11:03.981Z,23.1
2022-10-26T10:12:04.020Z,23.1
2022-10-26T10:13:04.013Z,23.1
2022-10-26T10:14:36.099Z,23.1
2022-10-26T10:15:03.998Z,23.0
2022-10-26T10:16:04.017Z,23.1
2022-10-26T10:17:04.099Z,23.1
2022-10-26T10:18:04.000Z,23.1
2022-10-26T10:19:03.991Z,23.1
2022-10-26T10:20:03.987Z,23.2
2022-10-26T10:21:04.277Z,23.2
2022-10-26T10:22:04.020Z,23.2
2022-10-26T10:23:04.014Z,23.2
2022-10-26T10:24:04.002Z,23.2
2022-10-26T10:25:03.993Z,23.2
2022-10-26T10:26:04.010Z,23.2
2022-10-26T10:27:04.002Z,23.1
2022-10-26T10:28:04.028Z,23.1
2022-10-26T10:29:03.991Z,23.0
2022-10-26T10:30:04.478Z,23.0
2022-10-26T10:31:04.015Z,23.0
2022-10-26T10:32:03.991Z,22.9
2022-10-26T10:33:03.999Z,22.9
2022-10-26T10:34:04.048Z,22.8
2022-10-26T10:35:03.995Z,22.7
2022-10-26T10:36:03.992Z,22.7
2022-10-26T10:37:03.987Z,22.6
2022-10-26T10:38:04.007Z,22.7
2022-10-26T10:39:03.999Z,22.6
2022-10-26T10:40:04.028Z,22.6
2022-10-26T10:41:04.139Z,22.6
2022-10-26T10:42:04.033Z,22.6
2022-10-26T10:43:04.125Z,22.5
2022-10-26T10:44:05.066Z,22.5
2022-10-26T10:45:03.980Z,22.4
2022-10-26T10:46:04.026Z,22.4
2022-10-26T10:47:04.001Z,22.4
2022-10-26T10:48:03.996Z,22.4
2022-10-26T10:49:04.216Z,22.4
2022-10-26T10:50:04.010Z,22.4
2022-10-26T10:51:04.008Z,22.4
2022-10-26T10:52:04.025Z,22.3
2022-10-26T10:53:03.994Z,22.4
2022-10-26T10:54:04.102Z,22.5
2022-10-26T10:55:04.006Z,22.5
2022-10-26T10:56:07.645Z,22.5
2022-10-26T10:57:04.000Z,22.5
2022-10-26T10:58:03.992Z,22.5
2022-10-26T10:59:04.012Z,22.5
2022-10-26T11:00:04.000Z,22.5
2022-10-26T11:01:04.037Z,22.5
2022-10-26T11:02:04.181Z,22.5
2022-10-26T11:03:04.041Z,22.5
2022-10-26T11:04:04.033Z,22.5
2022-10-26T11:05:04.008Z,22.5
2022-10-26T11:06:04.030Z,22.4
2022-10-26T11:07:04.002Z,22.4
2022-10-26T11:08:04.046Z,22.4
2022-10-26T11:09:04.022Z,22.4
2022-10-26T11:10:04.055Z,22.4
2022-10-26T11:11:04.015Z,22.4
2022-10-26T11:12:04.002Z,22.4
2022-10-26T11:13:04.004Z,22.4
2022-10-26T11:14:04.023Z,22.4
2022-10-26T11:15:03.990Z,22.4
2022-10-26T11:16:10.728Z,22.4
2022-10-26T11:17:11.165Z,22.3
2022-10-26T11:18:03.880Z,22.4
2022-10-26T11:19:03.878Z,22.4
2022-10-26T11:20:03.867Z,22.5
2022-10-26T11:21:03.867Z,22.5
2022-10-26T11:22:03.917Z,22.5
2022-10-26T11:24:03.880Z,22.5
2022-10-26T11:25:03.884Z,22.5
2022-10-26T11:26:03.904Z,22.5
2022-10-26T11:27:03.872Z,22.4
2022-10-26T11:28:03.982Z,22.4
2022-10-26T11:29:03.896Z,22.5
2022-10-26T11:30:03.877Z,22.5
2022-10-26T11:31:03.880Z,22.5
2022-10-26T11:32:03.909Z,22.5
2022-10-26T11:33:03.904Z,22.5
2022-10-26T11:34:03.949Z,22.5
2022-10-26T11:35:03.872Z,22.6
2022-10-26T11:36:03.949Z,22.6
2022-10-26T11:37:04.074Z,22.6
2022-10-26T11:38:04.204Z,22.6
2022-10-26T11:39:06.331Z,22.5
2022-10-26T11:40:03.889Z,22.6
2022-10-26T11:41:03.941Z,22.5
2022-10-26T11:42:03.915Z,22.5
2022-10-26T11:43:03.971Z,22.5
2022-10-26T11:44:03.926Z,22.5
2022-10-26T11:45:03.913Z,22.4
2022-10-26T11:46:03.952Z,22.4
2022-10-26T11:47:03.901Z,22.4
2022-10-26T11:48:03.949Z,22.5
2022-10-26T11:49:03.964Z,22.5
2022-10-26T11:50:03.929Z,22.4
2022-10-26T11:51:03.910Z,22.3
2022-10-26T11:52:03.899Z,22.3
2022-10-26T11:53:03.899Z,22.3
2022-10-26T11:54:03.952Z,22.3
2022-10-26T11:55:03.894Z,22.4
2022-10-26T11:56:03.971Z,22.3
2022-10-26T11:57:03.908Z,22.3
2022-10-26T11:58:03.920Z,22.3
2022-10-26T11:59:03.892Z,22.3
2022-10-26T12:00:04.251Z,22.3
2022-10-26T12:01:03.956Z,22.4
2022-10-26T12:02:03.906Z,22.4
2022-10-26T12:04:56.074Z,22.1
2022-10-26T12:05:03.821Z,22.2
2022-10-26T12:06:04.093Z,22.3
2022-10-26T12:07:03.824Z,22.4
2022-10-26T12:08:03.816Z,22.4
2022-10-26T12:09:03.827Z,22.4
2022-10-26T12:10:03.822Z,22.4
2022-10-26T12:11:03.857Z,22.4
2022-10-26T12:12:03.878Z,22.4
2022-10-26T12:13:03.827Z,22.4
2022-10-26T12:14:03.825Z,22.5
2022-10-26T12:15:03.823Z,22.4
2022-10-26T12:16:04.599Z,22.4
2022-10-26T12:17:04.016Z,22.4
2022-10-26T12:18:03.854Z,22.4
2022-10-26T12:19:03.818Z,22.4
2022-10-26T12:20:03.832Z,22.4
2022-10-26T12:21:03.814Z,22.4
2022-10-26T12:22:03.813Z,22.4
2022-10-26T12:23:03.823Z,22.4
2022-10-26T12:24:03.886Z,22.3
2022-10-26T12:25:03.823Z,22.4
2022-10-26T12:26:03.894Z,22.5
2022-10-26T12:27:03.828Z,22.5
2022-10-26T12:28:03.814Z,22.6
2022-10-26T12:29:03.848Z,22.7
2022-10-26T12:30:03.825Z,22.8
2022-10-26T12:31:03.850Z,22.9
2022-10-26T12:32:03.845Z,23.0
2022-10-26T12:33:03.829Z,23.1
2022-10-26T12:34:03.921Z,23.1
2022-10-26T12:35:03.830Z,23.2
2022-10-26T12:36:04.165Z,23.2
2022-10-26T12:37:03.822Z,23.3
2022-10-26T12:38:03.850Z,23.3
2022-10-26T12:39:03.888Z,23.4
2022-10-26T12:40:03.824Z,23.4
2022-10-26T12:41:03.834Z,23.5
2022-10-26T12:42:03.816Z,23.5
2022-10-26T12:43:03.879Z,23.5
2022-10-26T12:44:06.216Z,23.6
2022-10-26T12:45:04.798Z,23.6
2022-10-26T12:46:03.840Z,23.6
2022-10-26T12:47:03.836Z,23.6
2022-10-26T12:48:10.706Z,23.6
2022-10-26T12:49:03.971Z,23.6
2022-10-26T12:50:03.824Z,23.6
2022-10-26T12:51:03.838Z,23.7
2022-10-26T12:52:03.822Z,23.6
2022-10-26T12:53:03.840Z,23.7
2022-10-26T12:54:03.835Z,23.7
2022-10-26T12:55:03.869Z,23.7
2022-10-26T12:56:03.842Z,23.7
2022-10-26T12:57:03.843Z,23.8
2022-10-26T12:58:03.834Z,23.8
2022-10-26T12:59:04.933Z,23.8
2022-10-26T13:00:03.830Z,23.8
2022-10-26T13:01:04.194Z,23.8
2022-10-26T13:02:03.885Z,23.8
2022-10-26T13:03:03.838Z,23.9
2022-10-26T13:04:03.823Z,23.9
2022-10-26T13:05:05.019Z,23.9
2022-10-26T13:06:03.862Z,23.9
2022-10-26T13:07:03.843Z,23.9
2022-10-26T13:08:03.833Z,23.9
2022-10-26T13:09:03.876Z,23.9
2022-10-26T13:10:03.837Z,24.0
2022-10-26T13:11:03.836Z,24.0
2022-10-26T13:12:03.904Z,24.0
2022-10-26T13:13:03.835Z,24.1
2022-10-26T13:14:03.835Z,24.1
2022-10-26T13:15:03.843Z,24.1
2022-10-26T13:16:03.833Z,24.1
2022-10-26T13:17:03.840Z,24.1
2022-10-26T13:18:03.876Z,24.1
2022-10-26T13:19:03.856Z,24.1
2022-10-26T13:20:03.850Z,24.0
2022-10-26T13:21:03.850Z,24.0
2022-10-26T13:22:03.830Z,24.0
2022-10-26T13:23:27.336Z,24.0
2022-10-26T13:24:03.863Z,23.9
2022-10-26T13:25:03.842Z,23.9
2022-10-26T13:26:03.837Z,23.9
2022-10-26T13:27:03.836Z,23.9
2022-10-26T13:28:03.842Z,24.0
2022-10-26T13:29:03.842Z,24.0
2022-10-26T13:30:03.865Z,24.0
2022-10-26T13:31:03.840Z,24.1